sensor_id;sensor_type;location;lat;lon;timestamp;temperature;humidity
1880;DHT22;49285;49.002;8.390;2023-06-22T00:01:51;26.50;99.90
1880;DHT22;49285;49.002;8.390;2023-06-22T00:04:16;26.40;99.90
1880;DHT22;49285;49.002;8.390;2023-06-22T00:06:42;26.40;99.90
1880;DHT22;49285;49.002;8.390;2023-06-22T00:09:07;26.40;99.90
1880;DHT22;49285;49.002;8.390;2023-06-22T00:11:33;26.30;99.90
1880;DHT22;49285;49.002;8.390;2023-06-22T00:13:59;26.30;99.90
1880;DHT22;49285;49.002;8.390;2023-06-22T00:16:25;26.30;99.90
1880;DHT22;49285;49.002;8.390;2023-06-22T00:18:50;26.30;99.90
1880;DHT22;49285;49.002;8.390;2023-06-22T00:21:16;26.30;99.90
1880;DHT22;49285;49.002;8.390;2023-06-22T00:23:42;26.30;99.90
1880;DHT22;49285;49.002;8.390;2023-06-22T00:26:07;26.30;99.90
1880;DHT22;49285;49.002;8.390;2023-06-22T00:28:34;26.30;99.90
1880;DHT22;49285;49.002;8.390;2023-06-22T00:30:59;25.80;99.90
1880;DHT22;49285;49.002;8.390;2023-06-22T00:33:26;25.60;99.90
1880;DHT22;49285;49.002;8.390;2023-06-22T00:35:52;25.40;99.90
1880;DHT22;49285;49.002;8.390;2023-06-22T00:38:18;25.40;99.90
1880;DHT22;49285;49.002;8.390;2023-06-22T00:40:44;25.40;99.90
1880;DHT22;49285;49.002;8.390;2023-06-22T00:43:10;25.40;99.90
1880;DHT22;49285;49.002;8.390;2023-06-22T00:45:36;25.40;99.90
1880;DHT22;49285;49.002;8.390;2023-06-22T00:48:02;25.40;99.90
1880;DHT22;49285;49.002;8.390;2023-06-22T00:50:32;25.40;99.90
1880;DHT22;49285;49.002;8.390;2023-06-22T00:53:06;25.30;99.90
1880;DHT22;49285;49.002;8.390;2023-06-22T00:55:35;25.30;99.90
1880;DHT22;49285;49.002;8.390;2023-06-22T00:58:03;25.20;99.90
1880;DHT22;49285;49.002;8.390;2023-06-22T01:00:31;25.10;99.90
1880;DHT22;49285;49.002;8.390;2023-06-22T01:02:58;25.00;99.90
1880;DHT22;49285;49.002;8.390;2023-06-22T01:05:24;25.00;99.90
1880;DHT22;49285;49.002;8.390;2023-06-22T01:13:36;24.90;99.90
1880;DHT22;49285;49.002;8.390;2023-06-22T01:16:10;24.90;99.90
1880;DHT22;49285;49.002;8.390;2023-06-22T01:18:41;24.90;99.90
1880;DHT22;49285;49.002;8.390;2023-06-22T01:21:09;24.80;99.90
1880;DHT22;49285;49.002;8.390;2023-06-22T01:29:12;24.70;99.90
1880;DHT22;49285;49.002;8.390;2023-06-22T01:31:40;24.70;99.90
1880;DHT22;49285;49.002;8.390;2023-06-22T01:34:08;24.70;99.90
1880;DHT22;49285;49.002;8.390;2023-06-22T01:36:35;24.60;99.90
1880;DHT22;49285;49.002;8.390;2023-06-22T01:39:04;24.60;99.90
1880;DHT22;49285;49.002;8.390;2023-06-22T01:41:35;24.60;99.90
1880;DHT22;49285;49.002;8.390;2023-06-22T01:44:01;24.60;99.90
1880;DHT22;49285;49.002;8.390;2023-06-22T01:46:28;24.60;99.90
1880;DHT22;49285;49.002;8.390;2023-06-22T01:48:54;24.50;99.90
1880;DHT22;49285;49.002;8.390;2023-06-22T01:51:20;24.50;99.90
1880;DHT22;49285;49.002;8.390;2023-06-22T01:53:46;24.50;99.90
1880;DHT22;49285;49.002;8.390;2023-06-22T01:56:13;24.50;99.90
1880;DHT22;49285;49.002;8.390;2023-06-22T01:58:50;24.50;99.90
1880;DHT22;49285;49.002;8.390;2023-06-22T02:01:24;24.50;99.90
1880;DHT22;49285;49.002;8.390;2023-06-22T02:04:01;24.50;99.90
1880;DHT22;49285;49.002;8.390;2023-06-22T02:06:33;24.40;99.90
1880;DHT22;49285;49.002;8.390;2023-06-22T02:09:06;24.40;99.90
1880;DHT22;49285;49.002;8.390;2023-06-22T02:11:33;24.40;99.90
1880;DHT22;49285;49.002;8.390;2023-06-22T02:14:00;24.40;99.90
1880;DHT22;49285;49.002;8.390;2023-06-22T02:16:26;24.40;99.90
1880;DHT22;49285;49.002;8.390;2023-06-22T02:18:55;24.40;99.90
1880;DHT22;49285;49.002;8.390;2023-06-22T02:21:27;24.40;99.90
1880;DHT22;49285;49.002;8.390;2023-06-22T02:23:52;24.30;99.90
1880;DHT22;49285;49.002;8.390;2023-06-22T02:26:18;24.30;99.90
1880;DHT22;49285;49.002;8.390;2023-06-22T02:28:44;24.20;99.90
1880;DHT22;49285;49.002;8.390;2023-06-22T02:31:09;24.20;99.90
1880;DHT22;49285;49.002;8.390;2023-06-22T02:33:35;24.20;99.90
1880;DHT22;49285;49.002;8.390;2023-06-22T02:36:01;24.20;99.90
1880;DHT22;49285;49.002;8.390;2023-06-22T02:38:31;24.20;99.90
1880;DHT22;49285;49.002;8.390;2023-06-22T02:40:59;24.20;99.90
1880;DHT22;49285;49.002;8.390;2023-06-22T02:43:25;24.20;99.90
1880;DHT22;49285;49.002;8.390;2023-06-22T02:45:50;24.20;99.90
1880;DHT22;49285;49.002;8.390;2023-06-22T02:48:16;24.20;99.90
1880;DHT22;49285;49.002;8.390;2023-06-22T02:50:42;24.20;99.90
1880;DHT22;49285;49.002;8.390;2023-06-22T02:53:07;24.10;99.90
1880;DHT22;49285;49.002;8.390;2023-06-22T02:55:33;24.10;99.90
1880;DHT22;49285;49.002;8.390;2023-06-22T02:57:58;24.10;99.90
1880;DHT22;49285;49.002;8.390;2023-06-22T03:00:25;24.10;99.90
1880;DHT22;49285;49.002;8.390;2023-06-22T03:02:55;24.10;99.90
1880;DHT22;49285;49.002;8.390;2023-06-22T03:05:21;24.10;99.90
1880;DHT22;49285;49.002;8.390;2023-06-22T03:07:47;24.10;99.90
1880;DHT22;49285;49.002;8.390;2023-06-22T03:10:13;24.10;99.90
1880;DHT22;49285;49.002;8.390;2023-06-22T03:12:40;24.10;99.90
1880;DHT22;49285;49.002;8.390;2023-06-22T03:15:07;24.00;99.90
1880;DHT22;49285;49.002;8.390;2023-06-22T03:17:34;24.00;99.90
1880;DHT22;49285;49.002;8.390;2023-06-22T03:20:00;24.00;99.90
1880;DHT22;49285;49.002;8.390;2023-06-22T03:22:26;24.00;99.90
1880;DHT22;49285;49.002;8.390;2023-06-22T03:24:52;24.00;99.90
1880;DHT22;49285;49.002;8.390;2023-06-22T03:27:17;24.00;99.90
1880;DHT22;49285;49.002;8.390;2023-06-22T03:29:43;24.00;99.90
1880;DHT22;49285;49.002;8.390;2023-06-22T03:32:10;24.00;99.90
1880;DHT22;49285;49.002;8.390;2023-06-22T03:34:35;23.90;99.90
1880;DHT22;49285;49.002;8.390;2023-06-22T03:37:01;23.90;99.90
1880;DHT22;49285;49.002;8.390;2023-06-22T03:39:27;23.90;99.90
1880;DHT22;49285;49.002;8.390;2023-06-22T03:41:52;23.90;99.90
1880;DHT22;49285;49.002;8.390;2023-06-22T03:44:18;23.90;99.90
1880;DHT22;49285;49.002;8.390;2023-06-22T03:46:43;23.90;99.90
1880;DHT22;49285;49.002;8.390;2023-06-22T03:49:09;23.90;99.90
1880;DHT22;49285;49.002;8.390;2023-06-22T03:51:34;23.80;99.90
1880;DHT22;49285;49.002;8.390;2023-06-22T03:54:00;23.90;99.90
1880;DHT22;49285;49.002;8.390;2023-06-22T03:56:25;23.90;99.90
1880;DHT22;49285;49.002;8.390;2023-06-22T03:58:51;23.90;99.90
1880;DHT22;49285;49.002;8.390;2023-06-22T04:01:17;23.80;99.90
1880;DHT22;49285;49.002;8.390;2023-06-22T04:03:42;23.80;99.90
1880;DHT22;49285;49.002;8.390;2023-06-22T04:06:08;23.80;99.90
1880;DHT22;49285;49.002;8.390;2023-06-22T04:08:34;23.80;99.90
1880;DHT22;49285;49.002;8.390;2023-06-22T04:10:59;23.80;99.90
1880;DHT22;49285;49.002;8.390;2023-06-22T04:13:25;23.80;99.90
1880;DHT22;49285;49.002;8.390;2023-06-22T04:15:51;23.80;99.90
1880;DHT22;49285;49.002;8.390;2023-06-22T04:18:16;23.80;99.90
1880;DHT22;49285;49.002;8.390;2023-06-22T04:20:42;23.80;99.90
1880;DHT22;49285;49.002;8.390;2023-06-22T04:23:10;23.80;99.90
1880;DHT22;49285;49.002;8.390;2023-06-22T04:25:35;23.80;99.90
1880;DHT22;49285;49.002;8.390;2023-06-22T04:28:01;23.80;99.90
1880;DHT22;49285;49.002;8.390;2023-06-22T04:30:28;23.80;99.90
1880;DHT22;49285;49.002;8.390;2023-06-22T04:32:54;23.80;99.90
1880;DHT22;49285;49.002;8.390;2023-06-22T04:35:23;23.80;99.90
1880;DHT22;49285;49.002;8.390;2023-06-22T04:37:49;23.80;99.90
1880;DHT22;49285;49.002;8.390;2023-06-22T04:40:15;23.80;99.90
1880;DHT22;49285;49.002;8.390;2023-06-22T04:42:41;23.80;99.90
1880;DHT22;49285;49.002;8.390;2023-06-22T04:45:17;23.80;99.90
1880;DHT22;49285;49.002;8.390;2023-06-22T04:47:43;23.80;99.90
1880;DHT22;49285;49.002;8.390;2023-06-22T04:50:11;23.90;99.90
1880;DHT22;49285;49.002;8.390;2023-06-22T04:52:37;23.90;99.90
1880;DHT22;49285;49.002;8.390;2023-06-22T04:55:03;23.90;99.90
1880;DHT22;49285;49.002;8.390;2023-06-22T04:57:29;23.90;99.90
1880;DHT22;49285;49.002;8.390;2023-06-22T05:00:01;23.90;99.90
1880;DHT22;49285;49.002;8.390;2023-06-22T05:02:41;23.90;99.90
1880;DHT22;49285;49.002;8.390;2023-06-22T05:05:07;23.90;99.90
1880;DHT22;49285;49.002;8.390;2023-06-22T05:07:36;23.90;99.90
1880;DHT22;49285;49.002;8.390;2023-06-22T05:10:02;23.90;99.90
1880;DHT22;49285;49.002;8.390;2023-06-22T05:12:29;24.00;99.90
1880;DHT22;49285;49.002;8.390;2023-06-22T05:14:55;23.90;99.90
1880;DHT22;49285;49.002;8.390;2023-06-22T05:17:20;23.90;99.90
1880;DHT22;49285;49.002;8.390;2023-06-22T05:19:46;23.90;99.90
1880;DHT22;49285;49.002;8.390;2023-06-22T05:22:15;23.90;99.90
1880;DHT22;49285;49.002;8.390;2023-06-22T05:24:41;23.80;99.90
1880;DHT22;49285;49.002;8.390;2023-06-22T05:27:08;23.90;99.90
1880;DHT22;49285;49.002;8.390;2023-06-22T05:29:33;23.90;99.90
1880;DHT22;49285;49.002;8.390;2023-06-22T05:31:59;23.90;99.90
1880;DHT22;49285;49.002;8.390;2023-06-22T05:34:24;23.90;99.90
1880;DHT22;49285;49.002;8.390;2023-06-22T05:36:50;23.90;99.90
1880;DHT22;49285;49.002;8.390;2023-06-22T05:39:15;23.90;99.90
1880;DHT22;49285;49.002;8.390;2023-06-22T05:41:42;23.90;99.90
1880;DHT22;49285;49.002;8.390;2023-06-22T05:44:08;23.90;99.90
1880;DHT22;49285;49.002;8.390;2023-06-22T05:46:34;23.90;99.90
1880;DHT22;49285;49.002;8.390;2023-06-22T05:48:59;23.90;99.90
1880;DHT22;49285;49.002;8.390;2023-06-22T05:51:25;23.80;99.90
1880;DHT22;49285;49.002;8.390;2023-06-22T05:53:50;23.80;99.90
1880;DHT22;49285;49.002;8.390;2023-06-22T05:56:17;23.80;99.90
1880;DHT22;49285;49.002;8.390;2023-06-22T05:58:42;23.90;99.90
1880;DHT22;49285;49.002;8.390;2023-06-22T06:01:08;23.90;99.90
1880;DHT22;49285;49.002;8.390;2023-06-22T06:03:33;24.00;99.90
1880;DHT22;49285;49.002;8.390;2023-06-22T06:05:59;24.00;99.90
1880;DHT22;49285;49.002;8.390;2023-06-22T06:08:25;24.10;99.90
1880;DHT22;49285;49.002;8.390;2023-06-22T06:10:50;24.00;99.90
1880;DHT22;49285;49.002;8.390;2023-06-22T06:13:18;24.10;99.90
1880;DHT22;49285;49.002;8.390;2023-06-22T06:15:43;24.10;99.90
1880;DHT22;49285;49.002;8.390;2023-06-22T06:18:09;24.20;99.90
1880;DHT22;49285;49.002;8.390;2023-06-22T06:20:35;24.20;99.90
1880;DHT22;49285;49.002;8.390;2023-06-22T06:23:01;24.20;99.90
1880;DHT22;49285;49.002;8.390;2023-06-22T06:25:27;24.20;99.90
1880;DHT22;49285;49.002;8.390;2023-06-22T06:27:53;24.20;99.90
1880;DHT22;49285;49.002;8.390;2023-06-22T06:30:20;24.30;99.90
1880;DHT22;49285;49.002;8.390;2023-06-22T06:32:46;24.40;99.90
1880;DHT22;49285;49.002;8.390;2023-06-22T06:35:13;24.40;99.90
1880;DHT22;49285;49.002;8.390;2023-06-22T06:37:41;24.40;99.90
1880;DHT22;49285;49.002;8.390;2023-06-22T06:40:08;24.40;99.90
1880;DHT22;49285;49.002;8.390;2023-06-22T06:42:36;24.50;99.90
1880;DHT22;49285;49.002;8.390;2023-06-22T06:45:04;24.60;99.90
1880;DHT22;49285;49.002;8.390;2023-06-22T06:47:30;24.60;99.90
1880;DHT22;49285;49.002;8.390;2023-06-22T06:49:55;24.60;99.90
1880;DHT22;49285;49.002;8.390;2023-06-22T06:52:21;24.70;99.90
1880;DHT22;49285;49.002;8.390;2023-06-22T06:54:47;24.80;99.90
1880;DHT22;49285;49.002;8.390;2023-06-22T06:57:12;24.90;99.90
1880;DHT22;49285;49.002;8.390;2023-06-22T06:59:39;25.00;99.90
1880;DHT22;49285;49.002;8.390;2023-06-22T07:02:05;25.00;99.90
1880;DHT22;49285;49.002;8.390;2023-06-22T07:04:30;25.10;99.90
1880;DHT22;49285;49.002;8.390;2023-06-22T07:06:56;25.20;99.90
1880;DHT22;49285;49.002;8.390;2023-06-22T07:09:21;25.30;99.90
1880;DHT22;49285;49.002;8.390;2023-06-22T07:11:47;25.30;99.90
1880;DHT22;49285;49.002;8.390;2023-06-22T07:14:12;25.30;99.90
1880;DHT22;49285;49.002;8.390;2023-06-22T07:16:38;25.40;99.90
1880;DHT22;49285;49.002;8.390;2023-06-22T07:19:03;25.50;99.90
1880;DHT22;49285;49.002;8.390;2023-06-22T07:21:29;25.50;99.90
1880;DHT22;49285;49.002;8.390;2023-06-22T07:23:55;25.50;99.90
1880;DHT22;49285;49.002;8.390;2023-06-22T07:26:21;25.60;99.90
1880;DHT22;49285;49.002;8.390;2023-06-22T07:28:47;25.70;99.90
1880;DHT22;49285;49.002;8.390;2023-06-22T07:31:12;25.80;99.90
1880;DHT22;49285;49.002;8.390;2023-06-22T07:33:38;25.80;99.90
1880;DHT22;49285;49.002;8.390;2023-06-22T07:36:04;25.90;99.90
1880;DHT22;49285;49.002;8.390;2023-06-22T07:38:33;25.90;99.90
1880;DHT22;49285;49.002;8.390;2023-06-22T07:40:59;26.00;99.90
1880;DHT22;49285;49.002;8.390;2023-06-22T07:43:24;26.00;99.90
1880;DHT22;49285;49.002;8.390;2023-06-22T07:45:50;26.10;99.90
1880;DHT22;49285;49.002;8.390;2023-06-22T07:48:22;26.10;99.90
1880;DHT22;49285;49.002;8.390;2023-06-22T07:50:48;26.20;99.90
1880;DHT22;49285;49.002;8.390;2023-06-22T07:53:14;26.30;99.90
1880;DHT22;49285;49.002;8.390;2023-06-22T07:55:39;26.30;99.90
1880;DHT22;49285;49.002;8.390;2023-06-22T07:58:05;26.40;99.90
1880;DHT22;49285;49.002;8.390;2023-06-22T08:00:30;26.40;99.90
1880;DHT22;49285;49.002;8.390;2023-06-22T08:02:56;26.50;99.90
1880;DHT22;49285;49.002;8.390;2023-06-22T08:05:22;26.60;99.90
1880;DHT22;49285;49.002;8.390;2023-06-22T08:07:47;26.70;99.90
1880;DHT22;49285;49.002;8.390;2023-06-22T08:10:14;26.70;99.90
1880;DHT22;49285;49.002;8.390;2023-06-22T08:12:40;26.80;99.90
1880;DHT22;49285;49.002;8.390;2023-06-22T08:15:06;26.80;99.90
1880;DHT22;49285;49.002;8.390;2023-06-22T08:17:32;26.90;99.90
1880;DHT22;49285;49.002;8.390;2023-06-22T08:19:58;26.90;99.90
1880;DHT22;49285;49.002;8.390;2023-06-22T08:22:24;27.00;99.90
1880;DHT22;49285;49.002;8.390;2023-06-22T08:24:49;27.10;99.90
1880;DHT22;49285;49.002;8.390;2023-06-22T08:27:15;27.10;99.90
1880;DHT22;49285;49.002;8.390;2023-06-22T08:29:42;27.20;99.90
1880;DHT22;49285;49.002;8.390;2023-06-22T08:32:11;27.30;99.90
1880;DHT22;49285;49.002;8.390;2023-06-22T08:34:36;27.40;99.90
1880;DHT22;49285;49.002;8.390;2023-06-22T08:37:02;27.50;99.90
1880;DHT22;49285;49.002;8.390;2023-06-22T08:39:32;27.60;99.90
1880;DHT22;49285;49.002;8.390;2023-06-22T08:41:57;27.70;99.90
1880;DHT22;49285;49.002;8.390;2023-06-22T08:44:23;27.80;99.90
1880;DHT22;49285;49.002;8.390;2023-06-22T08:46:48;27.80;99.90
1880;DHT22;49285;49.002;8.390;2023-06-22T08:49:14;28.00;99.90
1880;DHT22;49285;49.002;8.390;2023-06-22T08:51:40;28.10;99.90
1880;DHT22;49285;49.002;8.390;2023-06-22T08:54:06;28.30;99.90
1880;DHT22;49285;49.002;8.390;2023-06-22T08:56:31;28.40;99.90
1880;DHT22;49285;49.002;8.390;2023-06-22T08:58:57;28.50;99.90
1880;DHT22;49285;49.002;8.390;2023-06-22T09:01:22;28.50;99.90
1880;DHT22;49285;49.002;8.390;2023-06-22T09:03:48;28.60;99.90
1880;DHT22;49285;49.002;8.390;2023-06-22T09:06:21;28.70;99.90
1880;DHT22;49285;49.002;8.390;2023-06-22T09:08:47;28.80;99.90
1880;DHT22;49285;49.002;8.390;2023-06-22T09:11:13;28.80;99.90
1880;DHT22;49285;49.002;8.390;2023-06-22T09:13:38;28.90;99.90
1880;DHT22;49285;49.002;8.390;2023-06-22T09:16:04;28.90;99.90
1880;DHT22;49285;49.002;8.390;2023-06-22T09:18:30;28.90;99.90
1880;DHT22;49285;49.002;8.390;2023-06-22T09:20:56;29.00;99.90
1880;DHT22;49285;49.002;8.390;2023-06-22T09:23:21;28.90;99.90
1880;DHT22;49285;49.002;8.390;2023-06-22T09:25:47;29.00;99.90
1880;DHT22;49285;49.002;8.390;2023-06-22T09:28:14;29.00;99.90
1880;DHT22;49285;49.002;8.390;2023-06-22T09:30:39;29.00;99.90
1880;DHT22;49285;49.002;8.390;2023-06-22T09:33:05;29.00;99.90
1880;DHT22;49285;49.002;8.390;2023-06-22T09:35:30;29.10;99.90
1880;DHT22;49285;49.002;8.390;2023-06-22T09:37:56;29.10;99.90
1880;DHT22;49285;49.002;8.390;2023-06-22T09:40:21;29.20;99.90
1880;DHT22;49285;49.002;8.390;2023-06-22T09:42:47;29.30;99.90
1880;DHT22;49285;49.002;8.390;2023-06-22T09:45:13;29.40;99.90
1880;DHT22;49285;49.002;8.390;2023-06-22T09:47:38;29.50;99.90
1880;DHT22;49285;49.002;8.390;2023-06-22T09:50:05;29.60;99.90
1880;DHT22;49285;49.002;8.390;2023-06-22T09:52:30;29.70;99.90
1880;DHT22;49285;49.002;8.390;2023-06-22T09:54:56;29.70;99.90
1880;DHT22;49285;49.002;8.390;2023-06-22T09:57:22;29.80;99.90
1880;DHT22;49285;49.002;8.390;2023-06-22T09:59:47;29.90;99.90
1880;DHT22;49285;49.002;8.390;2023-06-22T10:02:13;29.90;99.90
1880;DHT22;49285;49.002;8.390;2023-06-22T10:04:39;29.90;99.90
1880;DHT22;49285;49.002;8.390;2023-06-22T10:07:05;30.00;99.90
1880;DHT22;49285;49.002;8.390;2023-06-22T10:09:31;30.00;99.90
1880;DHT22;49285;49.002;8.390;2023-06-22T10:11:56;30.00;99.90
1880;DHT22;49285;49.002;8.390;2023-06-22T10:14:22;30.00;99.90
1880;DHT22;49285;49.002;8.390;2023-06-22T10:16:51;30.10;99.90
1880;DHT22;49285;49.002;8.390;2023-06-22T10:19:16;30.10;99.90
1880;DHT22;49285;49.002;8.390;2023-06-22T10:21:42;30.20;99.90
1880;DHT22;49285;49.002;8.390;2023-06-22T10:24:07;30.20;99.90
1880;DHT22;49285;49.002;8.390;2023-06-22T10:26:34;30.20;99.90
1880;DHT22;49285;49.002;8.390;2023-06-22T10:29:00;30.30;99.90
1880;DHT22;49285;49.002;8.390;2023-06-22T10:31:26;30.30;99.90
1880;DHT22;49285;49.002;8.390;2023-06-22T10:33:53;30.30;99.90
1880;DHT22;49285;49.002;8.390;2023-06-22T10:36:19;30.40;99.90
1880;DHT22;49285;49.002;8.390;2023-06-22T10:38:45;30.40;99.90
1880;DHT22;49285;49.002;8.390;2023-06-22T10:41:12;30.50;99.90
1880;DHT22;49285;49.002;8.390;2023-06-22T10:43:38;30.50;99.90
1880;DHT22;49285;49.002;8.390;2023-06-22T10:46:03;30.50;99.90
1880;DHT22;49285;49.002;8.390;2023-06-22T10:48:29;30.60;99.90
1880;DHT22;49285;49.002;8.390;2023-06-22T10:50:54;30.60;99.90
1880;DHT22;49285;49.002;8.390;2023-06-22T10:53:20;30.60;99.90
1880;DHT22;49285;49.002;8.390;2023-06-22T10:55:47;30.70;99.90
1880;DHT22;49285;49.002;8.390;2023-06-22T10:58:12;30.70;99.90
1880;DHT22;49285;49.002;8.390;2023-06-22T11:00:38;30.80;99.90
1880;DHT22;49285;49.002;8.390;2023-06-22T11:03:03;30.90;99.90
1880;DHT22;49285;49.002;8.390;2023-06-22T11:05:29;31.00;99.90
1880;DHT22;49285;49.002;8.390;2023-06-22T11:07:54;31.10;99.90
1880;DHT22;49285;49.002;8.390;2023-06-22T11:10:20;31.20;99.90
1880;DHT22;49285;49.002;8.390;2023-06-22T11:12:45;31.30;99.90
1880;DHT22;49285;49.002;8.390;2023-06-22T11:15:11;31.30;99.90
1880;DHT22;49285;49.002;8.390;2023-06-22T11:17:37;31.40;99.90
1880;DHT22;49285;49.002;8.390;2023-06-22T11:20:03;31.50;99.90
1880;DHT22;49285;49.002;8.390;2023-06-22T11:22:36;31.50;99.90
1880;DHT22;49285;49.002;8.390;2023-06-22T11:25:02;31.50;99.90
1880;DHT22;49285;49.002;8.390;2023-06-22T11:27:28;31.50;99.90
1880;DHT22;49285;49.002;8.390;2023-06-22T11:29:53;31.60;99.90
1880;DHT22;49285;49.002;8.390;2023-06-22T11:32:19;31.70;99.90
1880;DHT22;49285;49.002;8.390;2023-06-22T11:34:44;31.80;99.90
1880;DHT22;49285;49.002;8.390;2023-06-22T11:37:10;31.80;99.90
1880;DHT22;49285;49.002;8.390;2023-06-22T11:39:36;31.90;99.90
1880;DHT22;49285;49.002;8.390;2023-06-22T11:42:01;31.90;99.90
1880;DHT22;49285;49.002;8.390;2023-06-22T11:44:27;31.90;99.90
1880;DHT22;49285;49.002;8.390;2023-06-22T11:46:52;31.90;99.90
1880;DHT22;49285;49.002;8.390;2023-06-22T11:49:18;31.90;99.90
1880;DHT22;49285;49.002;8.390;2023-06-22T11:51:44;31.80;99.90
1880;DHT22;49285;49.002;8.390;2023-06-22T11:54:09;31.80;99.90
1880;DHT22;49285;49.002;8.390;2023-06-22T11:56:35;31.80;99.90
1880;DHT22;49285;49.002;8.390;2023-06-22T11:59:00;31.80;99.90
1880;DHT22;49285;49.002;8.390;2023-06-22T12:01:26;31.80;99.90
1880;DHT22;49285;49.002;8.390;2023-06-22T12:03:51;31.90;99.90
1880;DHT22;49285;49.002;8.390;2023-06-22T12:06:17;32.00;99.90
1880;DHT22;49285;49.002;8.390;2023-06-22T12:08:43;32.10;99.90
1880;DHT22;49285;49.002;8.390;2023-06-22T12:11:08;32.20;99.90
1880;DHT22;49285;49.002;8.390;2023-06-22T12:13:34;32.30;99.90
1880;DHT22;49285;49.002;8.390;2023-06-22T12:15:59;32.50;99.90
1880;DHT22;49285;49.002;8.390;2023-06-22T12:18:25;32.60;99.90
1880;DHT22;49285;49.002;8.390;2023-06-22T12:20:50;32.80;99.90
1880;DHT22;49285;49.002;8.390;2023-06-22T12:23:16;32.80;99.90
1880;DHT22;49285;49.002;8.390;2023-06-22T12:25:42;32.90;99.90
1880;DHT22;49285;49.002;8.390;2023-06-22T12:28:07;32.90;99.90
1880;DHT22;49285;49.002;8.390;2023-06-22T12:30:33;32.90;99.90
1880;DHT22;49285;49.002;8.390;2023-06-22T12:32:59;32.90;99.90
1880;DHT22;49285;49.002;8.390;2023-06-22T12:35:24;32.80;99.90
1880;DHT22;49285;49.002;8.390;2023-06-22T12:37:50;32.70;99.90
1880;DHT22;49285;49.002;8.390;2023-06-22T12:40:15;32.50;99.90
1880;DHT22;49285;49.002;8.390;2023-06-22T12:42:41;32.40;99.90
1880;DHT22;49285;49.002;8.390;2023-06-22T12:45:08;32.30;99.90
1880;DHT22;49285;49.002;8.390;2023-06-22T12:47:33;32.30;99.90
1880;DHT22;49285;49.002;8.390;2023-06-22T12:49:59;32.20;99.90
1880;DHT22;49285;49.002;8.390;2023-06-22T12:52:25;32.20;99.90
1880;DHT22;49285;49.002;8.390;2023-06-22T12:54:51;32.10;99.90
1880;DHT22;49285;49.002;8.390;2023-06-22T12:57:17;32.00;99.90
1880;DHT22;49285;49.002;8.390;2023-06-22T12:59:44;32.00;99.90
1880;DHT22;49285;49.002;8.390;2023-06-22T13:02:10;32.00;99.90
1880;DHT22;49285;49.002;8.390;2023-06-22T13:04:36;31.90;99.90
1880;DHT22;49285;49.002;8.390;2023-06-22T13:07:01;31.80;99.90
1880;DHT22;49285;49.002;8.390;2023-06-22T13:09:27;31.80;99.90
1880;DHT22;49285;49.002;8.390;2023-06-22T13:11:52;31.80;99.90
1880;DHT22;49285;49.002;8.390;2023-06-22T13:14:18;31.90;99.90
1880;DHT22;49285;49.002;8.390;2023-06-22T13:16:43;31.90;99.90
1880;DHT22;49285;49.002;8.390;2023-06-22T13:19:09;32.20;99.90
1880;DHT22;49285;49.002;8.390;2023-06-22T13:21:35;32.30;99.90
1880;DHT22;49285;49.002;8.390;2023-06-22T13:24:00;32.50;99.90
1880;DHT22;49285;49.002;8.390;2023-06-22T13:26:26;32.40;99.90
1880;DHT22;49285;49.002;8.390;2023-06-22T13:28:54;32.50;99.90
1880;DHT22;49285;49.002;8.390;2023-06-22T13:31:19;32.60;99.90
1880;DHT22;49285;49.002;8.390;2023-06-22T13:33:45;32.70;99.90
1880;DHT22;49285;49.002;8.390;2023-06-22T13:36:13;32.60;99.90
1880;DHT22;49285;49.002;8.390;2023-06-22T13:38:38;32.70;99.90
1880;DHT22;49285;49.002;8.390;2023-06-22T13:41:05;32.90;99.90
1880;DHT22;49285;49.002;8.390;2023-06-22T13:43:31;33.10;99.90
1880;DHT22;49285;49.002;8.390;2023-06-22T13:45:57;33.30;99.90
1880;DHT22;49285;49.002;8.390;2023-06-22T13:48:22;33.30;99.90
1880;DHT22;49285;49.002;8.390;2023-06-22T13:50:49;33.30;99.90
1880;DHT22;49285;49.002;8.390;2023-06-22T13:53:14;33.30;99.90
1880;DHT22;49285;49.002;8.390;2023-06-22T13:55:40;33.20;99.90
1880;DHT22;49285;49.002;8.390;2023-06-22T13:58:06;33.30;99.90
1880;DHT22;49285;49.002;8.390;2023-06-22T14:00:32;33.20;99.90
1880;DHT22;49285;49.002;8.390;2023-06-22T14:02:57;32.90;99.90
1880;DHT22;49285;49.002;8.390;2023-06-22T14:05:23;32.70;99.90
1880;DHT22;49285;49.002;8.390;2023-06-22T14:07:48;32.30;99.90
1880;DHT22;49285;49.002;8.390;2023-06-22T14:10:14;31.80;99.90
1880;DHT22;49285;49.002;8.390;2023-06-22T14:12:40;31.60;99.90
1880;DHT22;49285;49.002;8.390;2023-06-22T14:15:05;31.30;99.90
1880;DHT22;49285;49.002;8.390;2023-06-22T14:17:31;31.10;99.90
1880;DHT22;49285;49.002;8.390;2023-06-22T14:19:57;31.00;99.90
1880;DHT22;49285;49.002;8.390;2023-06-22T14:22:22;31.00;99.90
1880;DHT22;49285;49.002;8.390;2023-06-22T14:24:48;30.90;99.90
1880;DHT22;49285;49.002;8.390;2023-06-22T14:27:14;30.80;99.90
1880;DHT22;49285;49.002;8.390;2023-06-22T14:29:40;30.70;99.90
1880;DHT22;49285;49.002;8.390;2023-06-22T14:32:06;30.60;99.90
1880;DHT22;49285;49.002;8.390;2023-06-22T14:34:33;30.50;99.90
1880;DHT22;49285;49.002;8.390;2023-06-22T14:37:01;30.60;99.90
1880;DHT22;49285;49.002;8.390;2023-06-22T14:39:27;30.70;99.90
1880;DHT22;49285;49.002;8.390;2023-06-22T14:41:52;30.80;99.90
1880;DHT22;49285;49.002;8.390;2023-06-22T14:44:18;31.00;99.90
1880;DHT22;49285;49.002;8.390;2023-06-22T14:46:43;31.10;99.90
1880;DHT22;49285;49.002;8.390;2023-06-22T14:49:09;31.20;99.90
1880;DHT22;49285;49.002;8.390;2023-06-22T14:51:35;31.50;99.90
1880;DHT22;49285;49.002;8.390;2023-06-22T14:54:00;31.70;99.90
1880;DHT22;49285;49.002;8.390;2023-06-22T14:56:26;32.00;99.90
1880;DHT22;49285;49.002;8.390;2023-06-22T14:58:51;32.20;99.90
1880;DHT22;49285;49.002;8.390;2023-06-22T15:01:17;32.50;99.90
1880;DHT22;49285;49.002;8.390;2023-06-22T15:03:43;32.70;99.90
1880;DHT22;49285;49.002;8.390;2023-06-22T15:06:09;33.00;99.90
1880;DHT22;49285;49.002;8.390;2023-06-22T15:08:38;33.50;99.50
1880;DHT22;49285;49.002;8.390;2023-06-22T15:11:04;34.00;98.50
1880;DHT22;49285;49.002;8.390;2023-06-22T15:13:33;34.60;97.80
1880;DHT22;49285;49.002;8.390;2023-06-22T15:16:00;35.10;95.90
1880;DHT22;49285;49.002;8.390;2023-06-22T15:18:26;35.40;94.70
1880;DHT22;49285;49.002;8.390;2023-06-22T15:20:52;35.70;94.50
1880;DHT22;49285;49.002;8.390;2023-06-22T15:23:18;35.40;94.40
1880;DHT22;49285;49.002;8.390;2023-06-22T15:25:44;35.40;94.70
1880;DHT22;49285;49.002;8.390;2023-06-22T15:28:11;34.90;95.10
1880;DHT22;49285;49.002;8.390;2023-06-22T15:30:36;35.10;94.30
1880;DHT22;49285;49.002;8.390;2023-06-22T15:33:02;35.40;93.70
1880;DHT22;49285;49.002;8.390;2023-06-22T15:35:28;35.40;92.20
1880;DHT22;49285;49.002;8.390;2023-06-22T15:37:53;35.30;90.90
1880;DHT22;49285;49.002;8.390;2023-06-22T15:40:19;35.30;91.20
1880;DHT22;49285;49.002;8.390;2023-06-22T15:42:45;35.70;90.60
1880;DHT22;49285;49.002;8.390;2023-06-22T15:45:12;36.00;89.20
1880;DHT22;49285;49.002;8.390;2023-06-22T15:47:38;36.40;88.30
1880;DHT22;49285;49.002;8.390;2023-06-22T15:50:04;36.50;88.20